Time;durP1;ratioP1;P1;durP2;ratioP2;P2;SDS_P1;SDS_P2;PMS_P1;PMS_P2;Temp;Humidity;BMP_temperature;BMP_pressure;BME280_temperature;BME280_humidity;BME280_pressure;Samples;Min_cycle;Max_cycle;Signal;HPM_P1;HPM_P2
2022/11/25 00:03:26;;;;;;;1.30;0.73;;;;;;;-9.34;97.35;102140.69;10574980;28;20055;-73
2022/11/25 00:08:29;;;;;;;0.47;0.47;;;;;;;-9.33;97.42;102139.72;10573569;28;20078;-74
2022/11/25 00:13:32;;;;;;;1.35;1.25;;;;;;;-9.39;97.69;102134.00;10575130;28;20063;-74
2022/11/25 00:18:34;;;;;;;1.25;1.23;;;;;;;-9.47;97.40;102139.91;10575624;28;20051;-73
2022/11/25 00:23:37;;;;;;;1.35;1.10;;;;;;;-9.54;97.72;102130.72;10574529;28;20462;-73
2022/11/25 00:28:40;;;;;;;1.73;1.45;;;;;;;-9.54;97.69;102131.56;10574801;28;20414;-73
2022/11/25 00:33:45;;;;;;;1.60;1.50;;;;;;;-9.50;97.22;102148.97;10573476;28;20125;-73
2022/11/25 00:38:52;;;;;;;1.27;1.10;;;;;;;-9.54;97.74;102136.88;10574366;28;20052;-73
2022/11/25 00:49:14;;;;;;;2.22;2.03;;;;;;;-9.53;97.05;102149.19;10573409;28;20047;-74
2022/11/25 00:54:16;;;;;;;2.38;1.70;;;;;;;-9.59;97.19;102141.66;10555721;28;20052;-73
2022/11/25 00:59:19;;;;;;;2.17;1.80;;;;;;;-9.54;97.02;102136.88;10573035;28;20036;-73
2022/11/25 01:04:21;;;;;;;1.33;1.20;;;;;;;-9.55;97.51;102139.59;10573926;28;20051;-73
2022/11/25 01:09:23;;;;;;;1.40;1.25;;;;;;;-9.63;98.01;102150.81;10571536;28;20044;-73
2022/11/25 01:14:26;;;;;;;1.90;1.40;;;;;;;-9.68;97.76;102152.97;10555206;28;20059;-73
2022/11/25 01:19:28;;;;;;;1.65;1.30;;;;;;;-9.70;97.22;102154.06;10551332;28;20046;-74
2022/11/25 01:24:30;;;;;;;1.83;1.45;;;;;;;-9.60;97.71;102153.25;10570015;28;20591;-73
2022/11/25 01:29:32;;;;;;;1.45;1.33;;;;;;;-9.50;97.69;102162.25;10571077;28;20052;-73
2022/11/25 01:34:36;;;;;;;1.90;1.67;;;;;;;-9.48;98.44;102172.75;10569747;28;20409;-73
2022/11/25 01:39:38;;;;;;;1.63;1.50;;;;;;;-9.52;98.18;102180.13;10567985;28;20040;-72
2022/11/25 01:44:42;;;;;;;2.13;1.40;;;;;;;-9.55;98.01;102180.31;10569851;28;20050;-74
2022/11/25 01:49:53;;;;;;;2.10;1.35;;;;;;;-9.59;98.31;102170.03;10570398;28;20048;-74
2022/11/25 01:55:01;;;;;;;1.15;1.05;;;;;;;-9.54;97.78;102168.75;10570343;28;20450;-72
2022/11/25 02:00:04;;;;;;;1.93;1.77;;;;;;;-9.56;97.47;102181.28;10571672;28;20054;-73
2022/11/25 02:05:34;;;;;;;0.55;0.55;;;;;;;-9.54;97.63;102173.22;10566244;28;20055;-75
2022/11/25 02:10:37;;;;;;;2.40;1.75;;;;;;;-9.49;97.83;102181.69;10564088;28;20040;-74
2022/11/25 02:15:39;;;;;;;4.25;2.10;;;;;;;-9.42;98.23;102191.75;10538896;28;20044;-73
2022/11/25 02:20:41;;;;;;;2.35;1.98;;;;;;;-9.38;97.58;102196.81;10562350;28;20055;-73
2022/11/25 02:25:44;;;;;;;1.27;0.98;;;;;;;-9.45;98.17;102193.78;10562255;28;20032;-73
2022/11/25 02:30:50;;;;;;;3.22;2.60;;;;;;;-9.36;97.76;102202.91;10548523;28;20057;-73
2022/11/25 02:35:58;;;;;;;4.57;3.03;;;;;;;-9.34;98.03;102190.34;10553871;28;20036;-73
2022/11/25 02:41:06;;;;;;;4.55;3.08;;;;;;;-9.29;98.16;102201.47;10543089;28;20043;-73
2022/11/25 02:46:11;;;;;;;1.33;1.15;;;;;;;-9.23;98.51;102191.22;10549894;28;20036;-72
2022/11/25 02:51:16;;;;;;;1.80;1.48;;;;;;;-9.16;98.61;102189.81;10540161;28;20044;-73
2022/11/25 02:56:21;;;;;;;4.60;2.42;;;;;;;-9.05;98.93;102194.28;10569243;28;20438;-73
2022/11/25 03:01:23;;;;;;;1.15;1.02;;;;;;;-8.98;98.84;102192.88;10546037;28;20048;-73
2022/11/25 03:06:26;;;;;;;4.78;1.95;;;;;;;-8.95;99.00;102197.97;10520440;28;20041;-73
2022/11/25 03:16:50;;;;;;;3.92;2.30;;;;;;;-8.90;98.80;102206.44;10565305;28;20036;-73
2022/11/25 03:21:52;;;;;;;5.35;3.08;;;;;;;-8.80;98.88;102200.44;10555105;28;20048;-74
2022/11/25 03:26:55;;;;;;;3.88;2.38;;;;;;;-8.76;98.96;102212.53;10566654;28;20036;-73
2022/11/25 03:31:58;;;;;;;1.92;1.40;;;;;;;-8.78;98.72;102217.13;10568486;28;20430;-73
2022/11/25 03:37:00;;;;;;;4.53;2.42;;;;;;;-8.79;98.94;102223.41;10561312;28;20037;-73
2022/11/25 03:42:05;;;;;;;2.42;1.65;;;;;;;-8.83;98.98;102228.97;10572748;28;20047;-74
2022/11/25 03:47:08;;;;;;;3.05;1.42;;;;;;;-8.79;98.72;102242.03;10572471;28;20043;-73
2022/11/25 03:52:11;;;;;;;2.78;1.95;;;;;;;-8.79;98.46;102224.25;10571397;28;20047;-74
2022/11/25 03:57:13;;;;;;;3.75;2.80;;;;;;;-8.74;98.80;102227.41;10574939;28;20406;-74
2022/11/25 04:02:16;;;;;;;4.95;2.88;;;;;;;-8.70;99.19;102241.31;10576379;28;20039;-73
2022/11/25 04:07:18;;;;;;;4.70;2.53;;;;;;;-8.71;99.41;102231.63;10574916;28;20048;-74
2022/11/25 04:17:44;;;;;;;4.25;2.72;;;;;;;-8.59;98.64;102252.00;10555966;28;20036;-73
2022/11/25 04:22:46;;;;;;;3.42;2.45;;;;;;;-8.57;98.98;102252.72;10534600;28;20414;-73
2022/11/25 04:27:49;;;;;;;3.30;2.78;;;;;;;-8.50;98.76;102251.31;10572619;28;20520;-73
2022/11/25 04:32:57;;;;;;;0.47;0.47;;;;;;;-8.46;99.07;102244.78;10555893;28;20048;-73
2022/11/25 04:38:00;;;;;;;2.60;1.70;;;;;;;-8.43;99.09;102239.22;10571268;28;20498;-73
2022/11/25 04:43:04;;;;;;;1.17;0.88;;;;;;;-8.42;99.03;102242.72;10528969;28;20044;-74
2022/11/25 04:48:06;;;;;;;2.85;1.25;;;;;;;-8.41;98.84;102250.59;10571606;28;20059;-74
2022/11/25 04:53:09;;;;;;;2.00;1.33;;;;;;;-8.34;98.69;102250.94;10548324;28;20044;-73
2022/11/25 04:58:12;;;;;;;1.20;0.43;;;;;;;-8.28;98.17;102245.97;10566188;28;20044;-73
2022/11/25 05:03:15;;;;;;;1.27;1.10;;;;;;;-8.23;98.77;102251.78;10540294;28;20056;-73
2022/11/25 05:08:18;;;;;;;3.97;2.20;;;;;;;-8.14;98.06;102254.72;10551458;28;20055;-74
2022/11/25 05:13:21;;;;;;;2.30;1.45;;;;;;;-8.03;98.41;102254.69;10562183;28;20040;-74
2022/11/25 05:18:23;;;;;;;0.75;0.68;;;;;;;-7.96;98.26;102271.91;10538327;28;20494;-73
2022/11/25 05:23:25;;;;;;;0.65;0.65;;;;;;;-7.89;98.58;102273.13;10570967;28;20040;-74
2022/11/25 05:28:29;;;;;;;1.40;0.98;;;;;;;-7.86;98.15;102256.88;10571196;28;20493;-74
2022/11/25 05:33:31;;;;;;;1.85;0.60;;;;;;;-7.77;98.42;102269.47;10554349;28;20048;-74
2022/11/25 05:38:34;;;;;;;1.73;1.27;;;;;;;-7.65;97.69;102272.97;10550238;28;20399;-74
2022/11/25 05:43:36;;;;;;;5.43;1.58;;;;;;;-7.63;97.80;102269.25;10570969;28;20533;-73
2022/11/25 05:48:39;;;;;;;3.10;1.88;;;;;;;-7.62;98.21;102268.28;10548889;28;20090;-74
2022/11/25 05:53:41;;;;;;;2.22;1.38;;;;;;;-7.58;98.29;102273.34;10566788;28;20052;-73
2022/11/25 05:58:44;;;;;;;6.53;2.78;;;;;;;-7.49;98.20;102277.91;10569713;28;20044;-73
2022/11/25 06:03:46;;;;;;;2.53;1.60;;;;;;;-7.48;97.91;102290.28;10570009;28;20051;-75
2022/11/25 06:08:50;;;;;;;5.63;2.45;;;;;;;-7.47;98.21;102303.47;10527929;28;20037;-73
2022/11/25 06:14:00;;;;;;;1.90;1.80;;;;;;;-7.43;97.89;102296.97;10527968;28;20055;-74
2022/11/25 06:19:05;;;;;;;3.85;2.00;;;;;;;-7.36;98.08;102300.81;10531437;28;20040;-74
2022/11/25 06:24:07;;;;;;;3.97;2.03;;;;;;;-7.30;98.41;102308.31;10529862;28;20036;-74
2022/11/25 06:29:10;;;;;;;0.80;0.73;;;;;;;-7.26;97.85;102298.25;10551614;28;20418;-74
2022/11/25 06:34:13;;;;;;;6.28;1.70;;;;;;;-7.23;98.04;102300.66;10568555;28;20410;-74
2022/11/25 06:39:16;;;;;;;4.28;2.05;;;;;;;-7.18;98.58;102303.81;10551587;28;20036;-74
2022/11/25 06:44:20;;;;;;;2.22;1.20;;;;;;;-7.09;98.52;102307.56;10570175;28;20044;-74
2022/11/25 06:49:22;;;;;;;5.18;2.40;;;;;;;-7.06;98.33;102326.81;10569054;28;20078;-74
2022/11/25 06:54:24;;;;;;;4.13;2.30;;;;;;;-7.04;98.59;102322.22;10569285;28;20046;-74
2022/11/25 06:59:26;;;;;;;1.08;0.88;;;;;;;-6.96;98.00;102324.22;10569849;28;20414;-73
2022/11/25 07:04:28;;;;;;;1.77;1.25;;;;;;;-6.90;98.32;102341.59;10568009;28;20590;-74
2022/11/25 07:09:31;;;;;;;4.93;1.90;;;;;;;-6.84;98.52;102325.06;10532251;28;20048;-74
2022/11/25 07:14:33;;;;;;;0.88;0.88;;;;;;;-6.76;98.29;102342.16;10526968;28;20419;-73
2022/11/25 07:19:36;;;;;;;3.55;2.22;;;;;;;-6.71;97.88;102333.75;10562727;28;20495;-73
2022/11/25 07:24:41;;;;;;;4.63;2.20;;;;;;;-6.66;98.10;102334.22;10567418;28;20029;-73
2022/11/25 07:29:44;;;;;;;2.63;0.90;;;;;;;-6.63;98.12;102339.28;10568357;28;20051;-74
2022/11/25 07:34:49;;;;;;;2.90;1.65;;;;;;;-6.59;98.12;102339.91;10567069;28;20048;-74
2022/11/25 07:39:55;;;;;;;2.92;1.55;;;;;;;-6.57;97.37;102344.13;10538691;28;20036;-74
2022/11/25 07:44:57;;;;;;;1.65;1.00;;;;;;;-6.50;97.24;102349.81;10529243;28;20049;-74
2022/11/25 07:50:20;;;;;;;1.95;1.70;;;;;;;-6.47;97.18;102342.38;10525595;28;20361;-74
2022/11/25 07:55:22;;;;;;;1.20;0.88;;;;;;;-6.42;97.15;102350.00;10565784;28;20052;-74
2022/11/25 08:00:28;;;;;;;10.80;1.50;;;;;;;-6.39;97.30;102352.44;10568252;28;20422;-73
2022/11/25 08:05:32;;;;;;;4.57;2.97;;;;;;;-6.35;97.11;102363.69;10568015;28;20044;-74
2022/11/25 08:10:34;;;;;;;4.20;1.65;;;;;;;-6.34;96.24;102354.72;10567780;28;20036;-73
2022/11/25 08:15:37;;;;;;;2.97;1.70;;;;;;;-6.31;96.63;102357.13;10545256;28;20059;-74
2022/11/25 08:20:39;;;;;;;1.45;0.65;;;;;;;-6.24;96.00;102364.50;10534649;28;20036;-74
2022/11/25 08:25:42;;;;;;;4.90;1.98;;;;;;;-6.21;95.81;102374.94;10573657;28;20052;-73
2022/11/25 08:30:44;;;;;;;2.00;1.00;;;;;;;-6.18;95.92;102376.47;10574663;28;20067;-74
2022/11/25 08:35:53;;;;;;;1.65;0.43;;;;;;;-6.14;95.75;102378.75;10569737;28;20047;-74
2022/11/25 08:40:59;;;;;;;3.72;1.98;;;;;;;-6.13;95.19;102371.59;10574069;28;20502;-74
2022/11/25 08:46:07;;;;;;;1.45;0.88;;;;;;;-6.08;95.59;102364.88;10574364;28;20042;-74
2022/11/25 08:51:17;;;;;;;0.93;0.90;;;;;;;-6.01;94.71;102370.56;10570622;28;20532;-73
2022/11/25 08:56:22;;;;;;;3.42;2.15;;;;;;;-5.97;95.17;102384.50;10572840;28;20575;-73
2022/11/25 09:01:24;;;;;;;4.70;2.17;;;;;;;-5.97;94.89;102380.00;10572507;28;20047;-74
2022/11/25 09:06:27;;;;;;;2.45;1.38;;;;;;;-5.92;95.16;102376.94;10572123;28;20047;-73
2022/11/25 09:11:30;;;;;;;0.45;0.45;;;;;;;-5.89;94.51;102387.34;10573937;28;20055;-74
2022/11/25 09:16:36;;;;;;;5.20;2.55;;;;;;;-5.84;94.61;102379.78;10573367;28;20047;-73
2022/11/25 09:21:38;;;;;;;4.70;3.30;;;;;;;-5.78;94.61;102382.75;10568244;28;20066;-75
2022/11/25 09:26:41;;;;;;;2.85;1.63;;;;;;;-5.71;94.63;102374.22;10545420;28;20036;-73
2022/11/25 09:31:43;;;;;;;2.35;2.15;;;;;;;-5.67;94.88;102389.03;10532648;28;20051;-74
2022/11/25 09:36:45;;;;;;;3.97;2.33;;;;;;;-5.60;94.70;102387.50;10541292;28;20036;-74
2022/11/25 09:47:49;;;;;;;3.03;1.73;;;;;;;-5.49;94.45;102382.09;10565991;28;20044;-75
2022/11/25 09:52:56;;;;;;;6.00;1.60;;;;;;;-5.46;94.55;102384.47;10574671;28;20055;-74
2022/11/25 09:58:29;;;;;;;2.60;1.75;;;;;;;-5.40;94.42;102399.13;10575797;28;20054;-73
2022/11/25 10:03:53;;;;;;;1.67;1.35;;;;;;;-5.38;94.15;102392.69;10572211;28;20055;-75
2022/11/25 10:09:01;;;;;;;1.20;1.10;;;;;;;-5.30;94.30;102394.69;10555179;28;20694;-74
2022/11/25 10:14:14;;;;;;;4.05;1.60;;;;;;;-5.26;93.95;102396.09;10552837;28;20041;-73
2022/11/25 10:19:35;;;;;;;1.38;1.27;;;;;;;-5.23;93.63;102383.28;10563833;28;20532;-73
2022/11/25 10:24:37;;;;;;;3.22;1.38;;;;;;;-5.20;93.68;102388.41;10570967;28;20051;-74
2022/11/25 10:29:40;;;;;;;0.93;0.93;;;;;;;-5.16;93.92;102402.34;10569130;28;20048;-73
2022/11/25 10:34:47;;;;;;;4.43;1.90;;;;;;;-5.18;93.62;102394.47;10568756;28;20044;-74
2022/11/25 10:39:49;;;;;;;1.98;1.35;;;;;;;-5.16;93.89;102397.00;10568387;28;20032;-74
2022/11/25 10:44:53;;;;;;;2.78;1.80;;;;;;;-5.14;93.31;102399.53;10568701;28;20056;-73
2022/11/25 10:49:55;;;;;;;1.33;1.20;;;;;;;-5.10;92.98;102393.78;10568449;28;20040;-73
2022/11/25 10:55:23;;;;;;;1.98;1.75;;;;;;;-5.07;93.01;102393.50;10562854;28;20503;-73
2022/11/25 11:00:36;;;;;;;2.72;1.77;;;;;;;-5.05;93.27;102393.34;10569159;28;20495;-74
2022/11/25 11:05:49;;;;;;;2.17;1.63;;;;;;;-5.07;93.07;102396.19;10569241;28;20414;-74
2022/11/25 11:11:18;;;;;;;0.52;0.45;;;;;;;-5.08;93.05;102405.19;10554683;28;20428;-73
2022/11/25 11:16:23;;;;;;;1.05;1.00;;;;;;;-5.16;92.59;102397.84;10570622;28;20047;-73
2022/11/25 11:21:36;;;;;;;1.85;1.15;;;;;;;-5.14;92.85;102388.84;10571330;28;20047;-73
2022/11/25 11:26:39;;;;;;;2.45;1.13;;;;;;;-5.19;93.56;102398.13;10568869;28;20039;-74
2022/11/25 11:31:47;;;;;;;1.40;1.25;;;;;;;-5.23;92.83;102388.66;10568469;28;20525;-73
2022/11/25 11:37:27;;;;;;;0.50;0.40;;;;;;;-5.28;92.50;102398.06;10551968;28;20044;-73
2022/11/25 11:42:48;;;;;;;3.05;1.52;;;;;;;-5.37;93.15;102386.38;10568325;28;20473;-73
2022/11/25 11:47:50;;;;;;;0.22;0.22;;;;;;;-5.38;93.00;102386.47;10567418;28;20414;-74
2022/11/25 11:53:24;;;;;;;1.48;1.38;;;;;;;-5.40;92.84;102383.94;10528217;28;20040;-73
2022/11/25 11:58:26;;;;;;;1.05;0.85;;;;;;;-5.43;93.11;102392.22;10534389;28;20040;-74
2022/11/25 12:03:29;;;;;;;2.47;1.45;;;;;;;-5.51;93.07;102387.56;10534612;28;20383;-73
2022/11/25 12:08:57;;;;;;;2.50;1.80;;;;;;;-5.50;93.14;102383.91;10520136;28;20155;-73
2022/11/25 12:14:05;;;;;;;;;;;;;;;-5.43;93.24;102394.06;10534260;28;20521;-74
2022/11/25 12:19:14;;;;;;;0.68;0.68;;;;;;;-5.56;93.68;102381.75;10556731;28;19927;-74
2022/11/25 12:24:19;;;;;;;;;;;;;;;-5.57;93.75;102379.22;10557898;28;20043;-75
2022/11/25 12:29:39;;;;;;;2.53;1.52;;;;;;;-5.58;93.51;102389.06;10571245;28;19919;-74
2022/11/25 12:34:49;;;;;;;0.77;0.60;;;;;;;-5.64;93.02;102397.63;10573297;28;20048;-74
2022/11/25 12:40:15;;;;;;;1.92;1.77;;;;;;;-5.67;93.15;102389.03;10566842;28;20062;-74
2022/11/25 12:45:21;;;;;;;1.65;1.27;;;;;;;-5.68;93.05;102390.84;10567960;28;20040;-74
2022/11/25 12:50:59;;;;;;;3.20;2.30;;;;;;;-5.71;93.34;102396.47;10564331;28;20051;-74
2022/11/25 12:56:13;;;;;;;0.93;0.82;;;;;;;-5.69;93.20;102388.31;10567842;28;20051;-74
2022/11/25 13:01:37;;;;;;;4.38;2.67;;;;;;;-5.68;93.47;102406.03;10568732;28;20596;-73
2022/11/25 13:07:19;;;;;;;3.55;2.20;;;;;;;-5.66;93.14;102401.41;10553067;28;20028;-74
2022/11/25 13:12:49;;;;;;;4.77;2.33;;;;;;;-5.73;93.44;102389.53;10557785;28;20067;-75
2022/11/25 13:17:59;;;;;;;2.83;1.92;;;;;;;-5.72;93.31;102404.63;10571831;28;20413;-74
2022/11/25 13:23:04;;;;;;;2.90;1.88;;;;;;;-5.77;92.91;102410.34;10567342;28;20043;-73
2022/11/25 13:28:28;;;;;;;1.90;1.10;;;;;;;-5.85;92.58;102413.69;10564066;28;20082;-72
2022/11/25 13:33:42;;;;;;;2.40;1.70;;;;;;;-5.86;92.78;102414.66;10565368;28;20044;-74
2022/11/25 13:38:50;;;;;;;1.27;1.17;;;;;;;-5.91;92.49;102418.72;10545955;28;20070;-74
2022/11/25 13:43:52;;;;;;;1.80;1.50;;;;;;;-5.96;92.79;102419.13;10554896;28;20491;-75
2022/11/25 13:48:57;;;;;;;0.70;0.70;;;;;;;-5.97;93.20;102414.75;10571218;28;20044;-74
2022/11/25 13:54:04;;;;;;;5.50;2.85;;;;;;;-5.95;92.47;102423.47;10564438;28;20040;-73
2022/11/25 13:59:09;;;;;;;3.30;2.47;;;;;;;-5.97;92.91;102428.13;10567669;28;20624;-72
2022/11/25 14:04:13;;;;;;;4.35;2.92;;;;;;;-5.99;92.37;102434.56;10563362;28;20179;-73
2022/11/25 14:09:21;;;;;;;3.42;1.85;;;;;;;-6.03;92.47;102423.28;10561646;28;20418;-74
2022/11/25 14:14:35;;;;;;;3.03;2.10;;;;;;;-6.08;92.82;102426.34;10571155;28;20395;-73
2022/11/25 14:19:55;;;;;;;4.30;2.10;;;;;;;-6.15;92.23;102446.53;10522507;28;20047;-72
2022/11/25 14:25:08;;;;;;;2.45;2.05;;;;;;;-6.20;92.24;102440.75;10549430;28;20410;-73
2022/11/25 14:30:11;;;;;;;2.92;2.17;;;;;;;-6.21;93.06;102441.72;10569624;28;20705;-73
2022/11/25 14:35:23;;;;;;;2.08;1.80;;;;;;;-6.24;92.89;102458.00;10569615;28;20047;-73
2022/11/25 14:40:43;;;;;;;2.05;1.50;;;;;;;-6.24;92.53;102455.34;10548460;28;20036;-73
2022/11/25 14:45:45;;;;;;;2.47;1.30;;;;;;;-6.27;92.78;102462.72;10567694;28;20440;-72
2022/11/25 14:50:59;;;;;;;1.70;1.48;;;;;;;-6.33;92.86;102477.44;10567858;28;20048;-72
2022/11/25 14:56:01;;;;;;;0.73;0.55;;;;;;;-6.38;92.40;102456.47;10561291;28;20521;-73
2022/11/25 15:01:05;;;;;;;2.33;1.50;;;;;;;-6.38;92.50;102467.16;10542828;28;20035;-73
2022/11/25 15:06:12;;;;;;;1.45;1.25;;;;;;;-6.45;92.32;102475.78;10552499;28;20044;-73
2022/11/25 15:11:19;;;;;;;1.67;1.15;;;;;;;-6.52;92.57;102453.22;10561402;28;20051;-72
2022/11/25 15:16:25;;;;;;;1.52;1.15;;;;;;;-6.57;92.66;102460.78;10525408;28;20060;-73
2022/11/25 15:21:38;;;;;;;1.27;0.93;;;;;;;-6.68;92.90;102448.28;10526437;28;20047;-73
2022/11/25 15:26:50;;;;;;;1.02;0.98;;;;;;;-6.71;92.29;102454.72;10565741;28;20048;-72
2022/11/25 15:31:52;;;;;;;1.30;1.20;;;;;;;-6.70;92.85;102455.56;10575866;28;20055;-72
2022/11/25 15:36:54;;;;;;;1.20;1.10;;;;;;;-6.74;93.01;102462.13;10575270;28;20066;-73
2022/11/25 15:42:04;;;;;;;2.92;1.20;;;;;;;-6.77;92.98;102459.69;10575673;28;20225;-73
2022/11/25 15:47:17;;;;;;;0.80;0.60;;;;;;;-6.82;93.32;102452.06;10576191;28;20036;-73
2022/11/25 15:52:19;;;;;;;1.85;1.10;;;;;;;-6.85;93.16;102443.47;10565728;28;20044;-73
2022/11/25 15:57:26;;;;;;;2.60;1.83;;;;;;;-6.82;93.66;102469.91;10568852;28;20036;-73
2022/11/25 16:02:28;;;;;;;1.63;1.38;;;;;;;-6.87;92.96;102464.09;10573982;28;20039;-73
2022/11/25 16:07:30;;;;;;;1.52;1.00;;;;;;;-6.90;92.87;102461.66;10559882;28;20039;-73
2022/11/25 16:12:32;;;;;;;0.73;0.68;;;;;;;-6.92;92.96;102460.94;10573378;28;20060;-73
2022/11/25 16:17:36;;;;;;;0.47;0.47;;;;;;;-6.93;93.04;102476.09;10573926;28;20047;-73
2022/11/25 16:22:38;;;;;;;2.55;1.80;;;;;;;-6.97;93.32;102471.13;10571977;28;20063;-73
2022/11/25 16:27:42;;;;;;;1.85;1.02;;;;;;;-7.01;92.85;102465.19;10565333;28;20047;-74
2022/11/25 16:32:44;;;;;;;1.80;1.40;;;;;;;-7.08;93.52;102464.84;10538909;28;20427;-72
2022/11/25 16:37:47;;;;;;;4.70;1.70;;;;;;;-7.18;93.21;102471.84;10572290;28;20047;-74
2022/11/25 16:42:52;;;;;;;4.07;2.13;;;;;;;-7.18;92.96;102465.66;10571502;28;20520;-73
2022/11/25 16:47:54;;;;;;;3.75;2.50;;;;;;;-7.19;92.73;102469.31;10574296;28;20044;-74
2022/11/25 16:52:56;;;;;;;4.20;2.35;;;;;;;-7.22;93.24;102462.41;10575366;28;20036;-74
2022/11/25 16:57:58;;;;;;;3.65;1.92;;;;;;;-7.25;93.46;102475.97;10541490;28;20055;-74
2022/11/25 17:03:01;;;;;;;4.38;2.20;;;;;;;-7.33;93.25;102467.72;10570592;28;20446;-73
2022/11/25 17:08:03;;;;;;;4.78;2.67;;;;;;;-7.34;93.38;102472.19;10573790;28;20044;-74
2022/11/25 17:13:05;;;;;;;3.63;2.53;;;;;;;-7.34;93.62;102472.19;10573106;28;20517;-72
2022/11/25 17:18:11;;;;;;;3.63;2.55;;;;;;;-7.36;93.65;102468.81;10559272;28;20035;-72
2022/11/25 17:23:16;;;;;;;5.15;2.78;;;;;;;-7.42;93.62;102471.13;10567721;28;20040;-72
2022/11/25 17:28:19;;;;;;;3.70;2.80;;;;;;;-7.48;93.79;102477.75;10556356;28;20040;-72
2022/11/25 17:33:21;;;;;;;2.70;2.22;;;;;;;-7.57;93.91;102474.97;10568760;28;20048;-74
2022/11/25 17:38:23;;;;;;;3.63;2.63;;;;;;;-7.56;93.94;102487.31;10573087;28;20423;-73
2022/11/25 17:43:26;;;;;;;3.35;2.33;;;;;;;-7.56;93.99;102485.50;10571944;28;20509;-73
2022/11/25 17:48:28;;;;;;;2.58;2.20;;;;;;;-7.57;93.99;102480.28;10563658;28;20036;-73
2022/11/25 17:53:32;;;;;;;2.78;2.45;;;;;;;-7.65;94.23;102494.19;10567918;28;20040;-73
2022/11/25 17:58:34;;;;;;;5.50;3.50;;;;;;;-7.73;94.35;102499.25;10573558;28;20036;-74
2022/11/25 18:03:36;;;;;;;6.68;3.80;;;;;;;-7.78;94.34;102515.63;10573057;28;20040;-74
2022/11/25 18:08:39;;;;;;;8.70;4.38;;;;;;;-7.85;94.50;102510.84;10552915;28;20529;-75
2022/11/25 18:13:43;;;;;;;8.20;3.90;;;;;;;-7.88;94.71;102501.28;10570373;28;20084;-75
2022/11/25 18:18:45;;;;;;;11.40;5.05;;;;;;;-7.93;94.67;102516.75;10555805;28;20044;-74
2022/11/25 18:23:47;;;;;;;10.88;4.00;;;;;;;-7.96;95.27;102512.53;10555583;28;20056;-76
2022/11/25 18:28:50;;;;;;;6.95;4.43;;;;;;;-7.97;95.25;102516.16;10545053;28;20059;-74
2022/11/25 18:33:52;;;;;;;11.13;5.28;;;;;;;-7.97;94.65;102517.97;10545206;28;20068;-74
2022/11/25 18:38:54;;;;;;;9.38;5.28;;;;;;;-8.01;95.18;102514.66;10533986;28;20036;-75
2022/11/25 18:43:58;;;;;;;10.73;4.68;;;;;;;-8.07;95.45;102508.94;10567315;28;20036;-73
2022/11/25 18:49:00;;;;;;;10.77;4.40;;;;;;;-8.10;94.76;102509.19;10535638;28;20051;-74
2022/11/25 18:54:03;;;;;;;7.78;4.05;;;;;;;-8.11;95.02;102502.16;10536080;28;20055;-73
2022/11/25 18:59:09;;;;;;;5.57;2.67;;;;;;;-8.13;95.16;102504.09;10557327;28;20055;-73
2022/11/25 19:04:15;;;;;;;4.95;2.80;;;;;;;-8.16;94.77;102513.13;10561117;28;20037;-76
2022/11/25 19:09:17;;;;;;;5.32;2.90;;;;;;;-8.20;94.80;102511.66;10552645;28;20051;-73
2022/11/25 19:14:27;;;;;;;6.47;3.15;;;;;;;-8.29;94.00;102525.66;10563581;28;20058;-73
2022/11/25 19:19:30;;;;;;;6.88;4.05;;;;;;;-8.38;93.94;102521.88;10558464;28;20495;-74
2022/11/25 19:24:32;;;;;;;4.90;3.00;;;;;;;-8.50;93.76;102522.78;10556152;28;20051;-77
2022/11/25 19:29:37;;;;;;;7.60;3.30;;;;;;;-8.64;93.55;102538.91;10558115;28;20048;-75
2022/11/25 19:34:43;;;;;;;3.33;2.20;;;;;;;-8.73;92.81;102520.91;10557562;28;20418;-75
2022/11/25 19:39:49;;;;;;;3.38;2.65;;;;;;;-8.78;92.54;102523.06;10541682;28;20718;-75
2022/11/25 19:44:54;;;;;;;6.30;3.05;;;;;;;-8.91;92.69;102526.59;10552217;28;20039;-75
2022/11/25 19:49:59;;;;;;;3.83;2.35;;;;;;;-9.00;92.75;102532.56;10546079;28;20036;-74
2022/11/25 19:55:12;;;;;;;4.50;3.15;;;;;;;-9.03;92.69;102538.06;10531155;28;20040;-73
2022/11/25 20:00:16;;;;;;;5.53;3.03;;;;;;;-9.09;92.66;102541.16;10557536;28;20067;-72
2022/11/25 20:05:29;;;;;;;6.63;2.92;;;;;;;-9.16;92.46;102546.06;10568001;28;20040;-74
2022/11/25 20:10:36;;;;;;;5.10;3.25;;;;;;;-9.25;92.57;102548.50;10563404;28;20452;-76
2022/11/25 20:15:39;;;;;;;6.00;3.50;;;;;;;-9.43;92.38;102558.59;10554442;28;20059;-78
2022/11/25 20:20:42;;;;;;;5.95;3.65;;;;;;;-9.53;91.94;102550.41;10563470;28;20063;-75
2022/11/25 20:25:47;;;;;;;3.78;2.95;;;;;;;-9.55;91.83;102559.41;10580430;28;20525;-75
2022/11/25 20:30:50;;;;;;;7.95;3.53;;;;;;;-9.62;92.79;102556.31;10561555;28;20054;-75
2022/11/25 20:36:02;;;;;;;8.45;3.78;;;;;;;-9.56;92.51;102563.03;10581404;28;20051;-74
2022/11/25 20:41:05;;;;;;;6.28;3.58;;;;;;;-9.58;92.99;102559.63;10586576;28;20032;-75
2022/11/25 20:46:20;;;;;;;6.82;3.75;;;;;;;-9.62;92.36;102563.44;10578385;28;20040;-77
2022/11/25 20:51:23;;;;;;;5.30;3.53;;;;;;;-9.59;93.32;102561.44;10586191;28;20044;-77
2022/11/25 20:56:26;;;;;;;5.28;3.75;;;;;;;-9.59;92.90;102560.59;10587993;28;20032;-75
2022/11/25 21:01:33;;;;;;;4.22;3.53;;;;;;;-9.57;93.05;102562.19;10556458;28;20044;-73
2022/11/25 21:06:37;;;;;;;5.85;3.85;;;;;;;-9.67;93.41;102563.75;10573932;28;20046;-74
2022/11/25 21:11:39;;;;;;;5.78;3.20;;;;;;;-9.78;93.15;102569.78;10572741;28;20048;-73
2022/11/25 21:16:41;;;;;;;5.30;3.45;;;;;;;-9.84;93.40;102572.84;10571322;28;20052;-73
2022/11/25 21:21:45;;;;;;;5.50;3.80;;;;;;;-9.83;93.87;102587.84;10570292;28;20592;-74
2022/11/25 21:26:49;;;;;;;5.70;3.42;;;;;;;-9.87;93.65;102577.53;10563380;28;20036;-74
2022/11/25 21:31:51;;;;;;;4.70;3.10;;;;;;;-9.90;94.06;102586.50;10571230;28;20108;-74
2022/11/25 21:36:57;;;;;;;5.00;3.83;;;;;;;-9.96;94.31;102578.13;10571295;28;20097;-73
2022/11/25 21:42:22;;;;;;;5.38;3.63;;;;;;;-9.96;94.54;102583.44;10571046;28;20055;-73
2022/11/25 21:47:42;;;;;;;6.30;3.95;;;;;;;-9.92;95.14;102582.25;10542212;28;20044;-75
2022/11/25 21:52:44;;;;;;;3.95;2.28;;;;;;;-9.94;94.97;102589.47;10569409;28;20044;-73
2022/11/25 21:57:46;;;;;;;5.30;3.67;;;;;;;-9.91;95.31;102600.75;10570852;28;20052;-73
2022/11/25 22:02:49;;;;;;;5.53;4.57;;;;;;;-9.92;95.83;102585.78;10571108;28;20055;-73
2022/11/25 22:07:53;;;;;;;5.45;3.42;;;;;;;-9.88;95.80;102578.47;10570541;28;20524;-74
2022/11/25 22:12:55;;;;;;;7.45;4.57;;;;;;;-9.79;95.72;102580.50;10570122;28;20557;-74
2022/11/25 22:17:58;;;;;;;8.50;4.75;;;;;;;-9.74;95.96;102573.94;10563613;28;20047;-73
2022/11/25 22:23:00;;;;;;;8.23;4.40;;;;;;;-9.64;95.92;102571.53;10571346;28;20063;-73
2022/11/25 22:28:03;;;;;;;5.93;4.45;;;;;;;-9.61;95.98;102575.78;10569310;28;20059;-73
2022/11/25 22:33:08;;;;;;;7.53;4.72;;;;;;;-9.55;96.15;102576.22;10552071;28;20407;-74
2022/11/25 22:38:15;;;;;;;9.52;5.13;;;;;;;-9.57;96.35;102572.81;10554202;28;20069;-74
2022/11/25 22:43:23;;;;;;;8.50;5.60;;;;;;;-9.57;96.49;102580.78;10550765;28;20043;-74
2022/11/25 22:48:36;;;;;;;8.52;5.90;;;;;;;-9.57;96.36;102593.22;10569371;28;20035;-73
2022/11/25 22:53:38;;;;;;;9.55;6.55;;;;;;;-9.58;95.91;102597.69;10554195;28;20055;-74
2022/11/25 22:58:40;;;;;;;7.97;5.25;;;;;;;-9.60;96.61;102607.56;10573669;28;20032;-73
2022/11/25 23:03:43;;;;;;;7.38;4.47;;;;;;;-9.61;96.25;102600.53;10584854;28;20046;-74
2022/11/25 23:08:45;;;;;;;4.22;2.47;;;;;;;-9.64;96.33;102610.53;10582903;28;20042;-74
2022/11/25 23:13:50;;;;;;;6.03;4.50;;;;;;;-9.69;96.06;102608.19;10558320;28;20395;-74
2022/11/25 23:18:52;;;;;;;7.15;4.57;;;;;;;-9.75;96.25;102616.53;10552249;28;20040;-72
2022/11/25 23:23:55;;;;;;;5.22;4.55;;;;;;;-9.78;95.92;102614.94;10568507;28;20050;-73
2022/11/25 23:28:57;;;;;;;11.63;5.63;;;;;;;-9.76;95.87;102622.81;10562378;28;20048;-73
2022/11/25 23:33:59;;;;;;;7.22;4.30;;;;;;;-9.76;95.84;102625.47;10568266;28;20044;-73
2022/11/25 23:39:02;;;;;;;2.97;2.05;;;;;;;-9.79;95.92;102629.16;10550613;28;20406;-73
2022/11/25 23:44:15;;;;;;;5.43;3.28;;;;;;;-9.74;95.57;102619.09;10567711;28;20498;-74
2022/11/25 23:49:24;;;;;;;6.25;3.60;;;;;;;-9.81;96.33;102627.56;10563756;28;20039;-74